Etusivu
METAR-TAF:

METAR-TAF

Lentoasemat :

Barbacena, Minas Gerais, Brasilia

Leveyspiiri: 21-15S, Pituuspiiri: 043-46W, korkeus merenpinnasta: 1171 m

Tämänhetkinen sää

Tämä raportti tehtiin 23 minuuttia sitten, kello 16.00 UTC
Tuuli 6 kn pohjoisesta
Lämpötila 22°C
Kosteus 50%
Ilmanpaine 1027 hPa
Näkyvyys 10 km tai enemmän
Hajonneita pilviä 4300 ft:n korkeudessa

METAR: SBBQ 141600Z 01006KT 9999 BKN043 22/11 Q1027

Aika: 13:23 (16:23 UTC)


TAF: puuttuu

Säähavainnot ja -ennusteet yli 4000 lentoasemalta (METAR- ja TAF-raportit).

Käytössä olevat sääasemat on merkitty karttaan keltaisilla ja punaisilla pisteillä.

Aseta hiiri pisteen päälle nähdäksesi sääaseman nimen.

Klikkaa sitten nähdäksesi säähavainnot ja -ennusteet.

Kartan vaihtaminen: klikkaa mustalla rastilla varustettuja vihreitä pisteitä, niin voit zoomata sisään; viivalla varustettua vihreää pistettä, niin voit zoomata ulos tai vihreitä nuolia, niin pääset viereisille kartoille.


METAR-TAF: